Pagrindinis puslapis
METAR-TAF:

METAR-TAF

Oro uostai :

Puerto Karenjas, Kolumbija

platuma: 06-10N, ilguma: 067-30W, Aukštis: 55 m

Dabartinis oras

Ataskaita buvo paskelbta 1 valandą ir 0 minutes, ne 23:00 UTC
Ramus vėjas
Temperatūra 30°C
Drėgmė 59%
Slėgis 1006 hPa
Matomumas 10 km arba daugiau
Mažai debesys ne aukštis 1700 ft
Išsisklaidę debesys ne aukštis 7000 ft

METAR: SKPC 222300Z 00000KT 9999 FEW017 SCT070 30/21 A2970

Laikas: 19:00 (00:00 UTC)


TAF: trūkstamas

Orai ataskaitas ir orų prognozės (METAR, TAF).

turimą stotys yra geltonos ir raudonos taškus žemėlapyje.

Perkelti pele per norėdami pamatyti stoties vardą.

Tada spustelėkite, norėdami matyti oro stebėjimo ir prognozės.

Norėdami pakeisti žemėlapį: spustelėkite ant žalios mygtukų su juodo kryžiaus žemyn,; žalią mygtuką su brūkšneliu, jei norite nutolinti; arba žalių rodyklių gretimoms žemėlapius.


METAR-TAF: